createdAt,value
2018-11-07T00:00:20.801Z,12.10
2018-11-07T00:02:50.167Z,12.10
2018-11-07T00:05:20.093Z,12.00
2018-11-07T00:07:49.283Z,12.00
2018-11-07T00:10:18.288Z,12.00
2018-11-07T00:12:47.428Z,12.10
2018-11-07T00:15:16.994Z,12.10
2018-11-07T00:17:46.029Z,12.00
2018-11-07T00:20:15.266Z,12.00
2018-11-07T00:22:44.566Z,11.90
2018-11-07T00:25:13.837Z,11.90
2018-11-07T00:27:42.900Z,11.80
2018-11-07T00:30:12.309Z,11.70
2018-11-07T00:32:41.411Z,11.70
2018-11-07T00:35:11.529Z,11.60
2018-11-07T00:37:41.506Z,11.60
2018-11-07T00:40:10.823Z,11.50
2018-11-07T00:42:40.084Z,11.40
2018-11-07T00:45:10.743Z,11.30
2018-11-07T00:47:39.928Z,11.20
2018-11-07T00:50:14.808Z,11.20
2018-11-07T00:52:44.624Z,11.10
2018-11-07T00:55:14.512Z,11.10
2018-11-07T00:57:44.367Z,11.00
2018-11-07T01:00:18.146Z,11.10
2018-11-07T01:02:48.658Z,11.00
2018-11-07T01:05:18.529Z,11.00
2018-11-07T01:07:48.293Z,11.00
2018-11-07T01:10:17.518Z,11.00
2018-11-07T01:12:46.792Z,11.00
2018-11-07T01:15:15.967Z,11.00
2018-11-07T01:17:45.063Z,11.10
2018-11-07T01:20:14.789Z,11.10
2018-11-07T01:22:44.291Z,11.10
2018-11-07T01:25:15.232Z,11.10
2018-11-07T01:27:44.276Z,11.10
2018-11-07T01:30:14.455Z,11.10
2018-11-07T01:32:44.372Z,11.10
2018-11-07T01:35:13.525Z,11.00
2018-11-07T01:37:42.778Z,11.10
2018-11-07T01:40:14.124Z,11.20
2018-11-07T01:42:44.328Z,11.20
2018-11-07T01:45:14.348Z,11.30
2018-11-07T01:47:43.588Z,11.30
2018-11-07T01:50:13.874Z,11.30
2018-11-07T01:52:42.946Z,11.30
2018-11-07T01:55:12.170Z,11.30
2018-11-07T01:57:42.692Z,11.30
2018-11-07T02:00:12.718Z,11.30
2018-11-07T02:02:43.542Z,11.30
2018-11-07T02:05:14.228Z,11.20
2018-11-07T02:07:44.195Z,11.10
2018-11-07T02:10:13.428Z,11.10
2018-11-07T02:12:42.590Z,11.00
2018-11-07T02:15:11.889Z,11.00
2018-11-07T02:17:41.109Z,11.00
2018-11-07T02:20:11.613Z,10.90
2018-11-07T02:22:41.117Z,10.80
2018-11-07T02:25:10.211Z,10.80
2018-11-07T02:27:40.239Z,10.80
2018-11-07T02:30:13.856Z,10.70
2018-11-07T02:32:44.178Z,10.70
2018-11-07T02:35:13.354Z,10.60
2018-11-07T02:37:42.663Z,10.60
2018-11-07T02:40:11.945Z,10.60
2018-11-07T02:42:42.292Z,10.60
2018-11-07T02:45:11.452Z,10.60
2018-11-07T02:47:40.592Z,10.70
2018-11-07T02:50:10.689Z,10.70
2018-11-07T02:52:39.734Z,10.70
2018-11-07T02:55:09.302Z,10.70
2018-11-07T02:57:39.364Z,10.80
2018-11-07T03:00:11.013Z,10.80
2018-11-07T03:02:40.810Z,10.70
2018-11-07T03:05:10.196Z,10.70
2018-11-07T03:07:40.308Z,10.70
2018-11-07T03:10:12.063Z,10.60
2018-11-07T03:12:41.719Z,10.60
2018-11-07T03:15:11.079Z,10.60
2018-11-07T03:17:40.319Z,10.60
2018-11-07T03:20:11.235Z,10.60
2018-11-07T03:22:40.390Z,10.60
2018-11-07T03:25:09.604Z,10.50
2018-11-07T03:27:38.786Z,10.50
2018-11-07T03:30:08.933Z,10.40
2018-11-07T03:32:38.213Z,10.40
2018-11-07T03:35:11.881Z,10.40
2018-11-07T03:37:40.887Z,10.40
2018-11-07T03:40:11.133Z,10.30
2018-11-07T03:42:40.467Z,10.30
2018-11-07T03:45:09.535Z,10.30
2018-11-07T03:47:38.746Z,10.30
2018-11-07T03:50:08.027Z,10.20
2018-11-07T03:52:38.014Z,10.20
2018-11-07T03:55:07.688Z,10.10
2018-11-07T03:57:38.137Z,10.10
2018-11-07T04:00:12.494Z,10.10
2018-11-07T04:02:41.817Z,10.00
2018-11-07T04:05:12.464Z,9.90
2018-11-07T04:07:44.907Z,9.90
2018-11-07T04:10:15.831Z,9.80
2018-11-07T04:12:44.943Z,9.80
2018-11-07T04:15:14.628Z,9.80
2018-11-07T04:17:43.717Z,9.80
2018-11-07T04:20:12.944Z,9.80
2018-11-07T04:22:42.075Z,9.80
2018-11-07T04:25:11.265Z,9.80
2018-11-07T04:27:40.277Z,9.70
2018-11-07T04:30:12.525Z,9.70
2018-11-07T04:32:42.218Z,9.70
2018-11-07T04:35:15.826Z,9.60
2018-11-07T04:37:45.122Z,9.60
2018-11-07T04:40:14.443Z,9.50
2018-11-07T04:42:43.444Z,9.50
2018-11-07T04:45:13.076Z,9.50
2018-11-07T04:47:42.205Z,9.40
2018-11-07T04:50:12.759Z,9.40
2018-11-07T04:52:42.061Z,9.30
2018-11-07T04:55:11.183Z,9.30
2018-11-07T04:57:40.480Z,9.30
2018-11-07T05:00:11.247Z,9.20
2018-11-07T05:02:40.806Z,9.20
2018-11-07T05:05:10.121Z,9.20
2018-11-07T05:07:40.785Z,9.30
2018-11-07T05:10:11.175Z,9.30
2018-11-07T05:12:41.688Z,9.30
2018-11-07T05:15:12.327Z,9.20
2018-11-07T05:17:41.685Z,9.20
2018-11-07T05:20:13.294Z,9.20
2018-11-07T05:22:43.917Z,9.20
2018-11-07T05:25:12.944Z,9.20
2018-11-07T05:27:42.688Z,9.20
2018-11-07T05:30:12.546Z,9.30
2018-11-07T05:32:41.941Z,9.30
2018-11-07T05:35:12.049Z,9.30
2018-11-07T05:37:41.475Z,9.30
2018-11-07T05:40:10.620Z,9.40
2018-11-07T05:42:39.698Z,9.40
2018-11-07T05:45:08.984Z,9.50
2018-11-07T05:47:38.346Z,9.50
2018-11-07T05:50:08.194Z,9.50
2018-11-07T05:52:37.490Z,9.50
2018-11-07T05:55:09.342Z,9.50
2018-11-07T05:57:38.617Z,9.40
2018-11-07T06:00:09.665Z,9.30
2018-11-07T06:02:41.541Z,9.30
2018-11-07T06:05:11.854Z,9.20
2018-11-07T06:07:41.477Z,9.20
2018-11-07T06:10:12.539Z,9.10
2018-11-07T06:12:42.009Z,9.10
2018-11-07T06:15:11.924Z,9.20
2018-11-07T06:17:41.113Z,9.30
2018-11-07T06:20:11.045Z,9.30
2018-11-07T06:22:40.243Z,9.50
2018-11-07T06:25:09.556Z,9.60
2018-11-07T06:27:38.734Z,9.70
2018-11-07T06:30:09.916Z,9.90
2018-11-07T06:32:38.978Z,10.10
2018-11-07T06:35:09.106Z,10.20
2018-11-07T06:37:38.287Z,10.20
2018-11-07T06:40:09.348Z,10.30
2018-11-07T06:42:38.522Z,10.30
2018-11-07T06:45:10.514Z,10.40
2018-11-07T06:47:39.719Z,10.40
2018-11-07T06:50:11.773Z,10.50
2018-11-07T06:52:40.965Z,10.50
2018-11-07T06:55:10.710Z,10.60
2018-11-07T06:57:39.984Z,10.70
2018-11-07T07:00:11.423Z,10.70
2018-11-07T07:02:40.729Z,10.80
2018-11-07T07:05:10.072Z,10.90
2018-11-07T07:07:39.384Z,10.90
2018-11-07T07:10:11.385Z,11.00
2018-11-07T07:12:41.312Z,11.00
2018-11-07T07:15:12.775Z,11.10
2018-11-07T07:17:42.082Z,11.10
2018-11-07T07:20:17.578Z,11.00
2018-11-07T07:22:47.413Z,11.10
2018-11-07T07:25:16.946Z,11.10
2018-11-07T07:27:47.465Z,11.10
2018-11-07T07:30:18.435Z,11.10
2018-11-07T07:32:48.003Z,11.00
2018-11-07T07:35:17.507Z,11.00
2018-11-07T07:37:46.588Z,11.00
2018-11-07T07:40:17.848Z,10.90
2018-11-07T07:42:47.360Z,10.80
2018-11-07T07:45:17.995Z,10.80
2018-11-07T07:47:47.178Z,10.80
2018-11-07T07:50:20.446Z,10.70
2018-11-07T07:52:49.483Z,10.80
2018-11-07T07:55:19.254Z,10.80
2018-11-07T07:57:48.612Z,10.80
2018-11-07T08:00:19.108Z,10.80
2018-11-07T08:02:50.948Z,10.90
2018-11-07T08:05:20.398Z,11.10
2018-11-07T08:07:49.981Z,11.30
2018-11-07T08:10:21.642Z,11.30
2018-11-07T08:12:51.158Z,11.40
2018-11-07T08:15:20.341Z,11.40
2018-11-07T08:17:49.594Z,11.40
2018-11-07T08:20:19.311Z,11.60
2018-11-07T08:22:49.058Z,11.70
2018-11-07T08:25:18.744Z,11.90
2018-11-07T08:27:48.008Z,12.10
2018-11-07T08:30:18.595Z,12.20
2018-11-07T08:32:48.301Z,12.30
2018-11-07T08:35:17.773Z,12.30
2018-11-07T08:37:47.447Z,12.40
2018-11-07T08:40:19.024Z,12.40
2018-11-07T08:42:48.671Z,12.50
2018-11-07T08:45:19.597Z,12.60
2018-11-07T08:47:48.780Z,12.70
2018-11-07T08:50:20.252Z,12.80
2018-11-07T08:52:49.682Z,12.90
2018-11-07T08:55:20.204Z,13.00
2018-11-07T08:57:51.090Z,13.10
2018-11-07T09:00:21.624Z,13.10
2018-11-07T09:02:50.874Z,13.10
2018-11-07T09:05:20.899Z,13.20
2018-11-07T09:07:50.265Z,13.20
2018-11-07T09:10:20.745Z,13.30
2018-11-07T09:12:50.021Z,13.40
2018-11-07T09:15:26.278Z,13.40
2018-11-07T09:17:55.525Z,13.50
2018-11-07T09:20:25.207Z,13.40
2018-11-07T09:22:54.292Z,13.40
2018-11-07T09:25:23.475Z,13.30
2018-11-07T09:27:52.689Z,13.30
2018-11-07T09:30:23.827Z,13.20
2018-11-07T09:32:52.885Z,13.30
2018-11-07T09:35:22.342Z,13.30
2018-11-07T09:37:51.455Z,13.30
2018-11-07T09:40:21.484Z,13.30
2018-11-07T09:42:51.873Z,13.40
2018-11-07T09:45:22.107Z,13.50
2018-11-07T09:47:51.737Z,13.60
2018-11-07T09:50:21.745Z,13.60
2018-11-07T09:52:50.834Z,13.60
2018-11-07T09:55:20.887Z,13.70
2018-11-07T09:57:50.640Z,13.70
2018-11-07T10:00:21.233Z,13.70
2018-11-07T10:02:50.687Z,13.80
2018-11-07T10:05:20.845Z,13.90
2018-11-07T10:07:49.971Z,13.90
2018-11-07T10:10:20.413Z,14.10
2018-11-07T10:12:49.740Z,14.10
2018-11-07T10:15:19.233Z,14.20
2018-11-07T10:17:48.316Z,14.20
2018-11-07T10:20:21.876Z,14.30
2018-11-07T10:22:54.223Z,14.40
2018-11-07T10:25:25.281Z,14.40
2018-11-07T10:27:54.894Z,14.50
2018-11-07T10:30:24.225Z,14.60
2018-11-07T10:32:53.390Z,14.70
2018-11-07T10:35:22.643Z,14.60
2018-11-07T10:37:52.057Z,14.70
2018-11-07T10:40:23.723Z,14.80
2018-11-07T10:42:52.864Z,14.80
2018-11-07T10:45:22.838Z,14.90
2018-11-07T10:47:52.515Z,15.00
2018-11-07T10:50:22.022Z,15.00
2018-11-07T10:52:51.531Z,15.10
2018-11-07T10:55:20.654Z,15.10
2018-11-07T10:57:50.095Z,15.00
2018-11-07T11:00:24.852Z,15.00
2018-11-07T11:02:59.508Z,14.90
2018-11-07T11:05:28.899Z,14.90
2018-11-07T11:07:58.842Z,14.80
2018-11-07T11:10:29.075Z,14.70
2018-11-07T11:12:58.294Z,14.70
2018-11-07T11:15:28.194Z,14.80
2018-11-07T11:17:57.331Z,14.80
2018-11-07T11:20:26.645Z,14.90
2018-11-07T11:22:55.866Z,14.90
2018-11-07T11:25:25.036Z,14.90
2018-11-07T11:27:54.205Z,15.00
2018-11-07T11:30:23.529Z,15.00
2018-11-07T11:32:52.991Z,15.10
2018-11-07T11:35:22.402Z,15.00
2018-11-07T11:37:51.375Z,14.90
2018-11-07T11:40:20.714Z,14.90
2018-11-07T11:42:49.829Z,15.00
2018-11-07T11:45:20.346Z,14.90
2018-11-07T11:47:49.963Z,15.00
2018-11-07T11:50:20.408Z,15.00
2018-11-07T11:52:50.110Z,14.90
2018-11-07T11:55:19.284Z,14.90
2018-11-07T11:57:50.079Z,14.90
2018-11-07T12:00:20.420Z,14.90
2018-11-07T12:02:49.690Z,14.90
2018-11-07T12:05:20.884Z,14.90
2018-11-07T12:07:50.886Z,14.90
2018-11-07T12:10:22.701Z,15.00
2018-11-07T12:12:53.930Z,15.00
2018-11-07T12:15:25.477Z,15.00
2018-11-07T12:17:55.621Z,15.00
2018-11-07T12:20:24.763Z,15.00
2018-11-07T12:22:55.334Z,14.90
2018-11-07T12:25:24.843Z,14.80
2018-11-07T12:27:54.224Z,14.70
2018-11-07T12:30:24.541Z,14.70
2018-11-07T12:32:55.212Z,14.60
2018-11-07T12:35:24.715Z,14.50
2018-11-07T12:37:54.110Z,14.50
2018-11-07T12:40:23.138Z,14.50
2018-11-07T12:42:57.664Z,14.40
2018-11-07T12:45:26.830Z,14.20
2018-11-07T12:47:56.775Z,14.10
2018-11-07T12:50:26.736Z,14.00
2018-11-07T12:52:55.829Z,13.90
2018-11-07T12:55:24.970Z,13.80
2018-11-07T12:57:54.667Z,13.80
2018-11-07T13:00:24.777Z,13.70
2018-11-07T13:02:54.294Z,13.70
2018-11-07T13:05:24.603Z,13.60
2018-11-07T13:07:54.638Z,13.50
2018-11-07T13:10:24.557Z,13.40
2018-11-07T13:12:54.157Z,13.30
2018-11-07T13:15:23.954Z,13.10
2018-11-07T13:17:53.686Z,13.10
2018-11-07T13:20:25.247Z,13.10
2018-11-07T13:22:55.041Z,13.00
2018-11-07T13:25:24.951Z,12.90
2018-11-07T13:27:54.094Z,12.80
2018-11-07T13:30:23.556Z,12.80
2018-11-07T13:32:52.799Z,12.70
2018-11-07T13:35:22.273Z,12.60
2018-11-07T13:37:54.290Z,12.50
2018-11-07T13:40:24.864Z,12.50
2018-11-07T13:42:53.971Z,12.40
2018-11-07T13:45:24.477Z,12.40
2018-11-07T13:47:54.769Z,12.30
2018-11-07T13:50:23.792Z,12.30
2018-11-07T13:52:55.410Z,12.30
2018-11-07T13:55:24.594Z,12.30
2018-11-07T13:57:53.841Z,12.30
2018-11-07T14:00:24.573Z,12.30
2018-11-07T14:02:54.203Z,12.20
2018-11-07T14:05:23.461Z,12.20
2018-11-07T14:07:52.630Z,12.20
2018-11-07T14:10:22.844Z,12.30
2018-11-07T14:12:52.525Z,12.30
2018-11-07T14:15:21.939Z,12.30
2018-11-07T14:17:51.751Z,12.30
2018-11-07T14:20:20.838Z,12.20
2018-11-07T14:22:49.980Z,12.20
2018-11-07T14:25:19.113Z,12.30
2018-11-07T14:27:48.426Z,12.20
2018-11-07T14:30:19.793Z,12.20
2018-11-07T14:32:57.598Z,12.20
2018-11-07T14:35:26.667Z,12.20
2018-11-07T14:37:56.818Z,12.10
2018-11-07T14:40:26.129Z,12.20
2018-11-07T14:42:55.477Z,12.20
2018-11-07T14:45:24.708Z,12.20
2018-11-07T14:47:54.071Z,12.20
2018-11-07T14:50:23.056Z,12.30
2018-11-07T14:52:52.786Z,12.40
2018-11-07T14:55:21.834Z,12.50
2018-11-07T14:57:51.158Z,12.60
2018-11-07T15:00:20.269Z,12.60
2018-11-07T15:02:49.457Z,12.70
2018-11-07T15:05:19.148Z,12.70
2018-11-07T15:07:48.158Z,12.80
2018-11-07T15:10:18.120Z,12.80
2018-11-07T15:12:48.294Z,12.80
2018-11-07T15:15:18.874Z,12.80
2018-11-07T15:17:48.280Z,12.80
2018-11-07T15:20:17.877Z,12.80
2018-11-07T15:22:47.041Z,12.70
2018-11-07T15:25:17.206Z,12.70
2018-11-07T15:27:47.270Z,12.60
2018-11-07T15:30:17.044Z,12.60
2018-11-07T15:32:46.839Z,12.50
2018-11-07T15:35:15.930Z,12.50
2018-11-07T15:37:45.328Z,12.50
2018-11-07T15:40:16.074Z,12.40
2018-11-07T15:42:45.801Z,12.40
2018-11-07T15:45:16.200Z,12.30
2018-11-07T15:47:45.403Z,12.30
2018-11-07T15:50:19.890Z,12.20
2018-11-07T15:52:49.569Z,12.10
2018-11-07T15:55:19.145Z,12.00
2018-11-07T15:57:49.188Z,12.00
2018-11-07T16:00:19.545Z,12.00
2018-11-07T16:02:48.773Z,12.00
2018-11-07T16:05:18.285Z,12.00
2018-11-07T16:07:47.588Z,12.00
2018-11-07T16:10:17.149Z,12.00
2018-11-07T16:12:47.204Z,12.10
2018-11-07T16:15:17.560Z,12.10
2018-11-07T16:17:47.774Z,12.20
2018-11-07T16:20:18.587Z,12.20
2018-11-07T16:22:49.042Z,12.30
2018-11-07T16:25:18.423Z,12.30
2018-11-07T16:27:47.446Z,12.30
2018-11-07T16:30:18.231Z,12.30
2018-11-07T16:32:47.383Z,12.30
2018-11-07T16:35:18.145Z,12.20
2018-11-07T16:37:48.509Z,12.30
2018-11-07T16:40:18.485Z,12.20
2018-11-07T16:42:47.625Z,12.20
2018-11-07T16:45:17.863Z,12.20
2018-11-07T16:47:47.089Z,12.10
2018-11-07T16:50:16.856Z,12.00
2018-11-07T16:52:46.060Z,11.90
2018-11-07T16:55:15.672Z,11.90
2018-11-07T16:57:45.459Z,11.80
2018-11-07T17:00:16.844Z,11.80
2018-11-07T17:02:46.450Z,11.80
2018-11-07T17:05:16.063Z,11.90
2018-11-07T17:07:46.512Z,12.00
2018-11-07T17:10:15.979Z,12.00
2018-11-07T17:12:46.911Z,12.00
2018-11-07T17:15:16.041Z,12.00
2018-11-07T17:17:46.206Z,12.00
2018-11-07T17:20:16.046Z,12.00
2018-11-07T17:22:46.675Z,12.00
2018-11-07T17:25:17.851Z,12.00
2018-11-07T17:27:47.705Z,12.10
2018-11-07T17:30:18.861Z,12.30
2018-11-07T17:32:48.184Z,12.30
2018-11-07T17:35:18.422Z,12.20
2018-11-07T17:37:47.926Z,12.20
2018-11-07T17:40:21.256Z,12.10
2018-11-07T17:42:51.333Z,12.10
2018-11-07T17:45:21.737Z,12.10
2018-11-07T17:47:51.705Z,12.10
2018-11-07T17:50:21.893Z,12.10
2018-11-07T17:52:51.730Z,12.10
2018-11-07T17:55:21.615Z,12.00
2018-11-07T17:57:50.839Z,12.00
2018-11-07T18:00:22.020Z,12.00
2018-11-07T18:02:51.235Z,11.90
2018-11-07T18:05:20.372Z,12.00
2018-11-07T18:07:49.923Z,11.90
2018-11-07T18:10:19.277Z,11.90
2018-11-07T18:12:48.472Z,11.80
2018-11-07T18:15:17.609Z,11.90
2018-11-07T18:17:47.014Z,11.90
2018-11-07T18:20:20.438Z,11.90
2018-11-07T18:22:49.506Z,11.90
2018-11-07T18:25:19.073Z,11.90
2018-11-07T18:27:48.953Z,11.90
2018-11-07T18:30:18.168Z,11.80
2018-11-07T18:32:48.033Z,11.70
2018-11-07T18:35:18.628Z,11.60
2018-11-07T18:37:47.922Z,11.60
2018-11-07T18:40:18.863Z,11.60
2018-11-07T18:42:48.202Z,11.50
2018-11-07T18:45:17.332Z,11.50
2018-11-07T18:47:46.986Z,11.50
2018-11-07T18:50:17.811Z,11.50
2018-11-07T18:52:48.381Z,11.40
2018-11-07T18:55:18.972Z,11.40
2018-11-07T18:57:48.281Z,11.40
2018-11-07T19:00:19.734Z,11.40
2018-11-07T19:02:49.939Z,11.40
2018-11-07T19:05:19.508Z,11.40
2018-11-07T19:07:48.843Z,11.30
2018-11-07T19:10:20.631Z,11.30
2018-11-07T19:12:50.322Z,11.20
2018-11-07T19:15:19.759Z,11.20
2018-11-07T19:17:50.056Z,11.10
2018-11-07T19:20:20.419Z,11.10
2018-11-07T19:22:49.511Z,11.00
2018-11-07T19:25:20.825Z,11.00
2018-11-07T19:27:50.003Z,11.00
2018-11-07T19:30:21.364Z,11.00
2018-11-07T19:32:51.614Z,11.00
2018-11-07T19:35:21.335Z,11.00
2018-11-07T19:37:52.724Z,11.00
2018-11-07T19:40:24.284Z,11.00
2018-11-07T19:42:53.712Z,11.00
2018-11-07T19:45:23.517Z,10.90
2018-11-07T19:47:53.027Z,10.90
2018-11-07T19:50:24.542Z,10.90
2018-11-07T19:52:55.201Z,10.90
2018-11-07T19:55:25.542Z,10.90
2018-11-07T19:57:59.082Z,10.90
2018-11-07T20:00:28.266Z,10.80
2018-11-07T20:02:57.833Z,10.80
2018-11-07T20:05:26.916Z,10.80
2018-11-07T20:07:56.880Z,10.80
2018-11-07T20:10:27.340Z,10.80
2018-11-07T20:12:56.309Z,10.80
2018-11-07T20:15:26.505Z,10.80
2018-11-07T20:17:55.843Z,10.80
2018-11-07T20:20:25.083Z,10.80
2018-11-07T20:22:56.206Z,10.80
2018-11-07T20:25:26.463Z,10.80
2018-11-07T20:27:55.666Z,10.70
2018-11-07T20:30:24.754Z,10.70
2018-11-07T20:32:54.020Z,10.70
2018-11-07T20:35:23.816Z,10.70
2018-11-07T20:37:53.052Z,10.70
2018-11-07T20:40:24.398Z,10.60
2018-11-07T20:42:53.804Z,10.60
2018-11-07T20:45:24.453Z,10.60
2018-11-07T20:47:54.333Z,10.60
2018-11-07T20:50:23.445Z,10.60
2018-11-07T20:52:52.576Z,10.60
2018-11-07T20:55:21.811Z,10.60
2018-11-07T20:57:51.052Z,10.60
2018-11-07T21:00:21.486Z,10.70
2018-11-07T21:02:50.776Z,10.70
2018-11-07T21:05:19.988Z,10.70
2018-11-07T21:07:49.820Z,10.70
2018-11-07T21:10:21.200Z,10.60
2018-11-07T21:12:52.272Z,10.60
2018-11-07T21:15:22.918Z,10.60
2018-11-07T21:17:52.110Z,10.60
2018-11-07T21:20:21.233Z,10.50
2018-11-07T21:22:50.329Z,10.40
2018-11-07T21:25:19.547Z,10.40
2018-11-07T21:27:48.705Z,10.50
2018-11-07T21:30:26.440Z,10.50
2018-11-07T21:32:55.774Z,10.60
2018-11-07T21:35:26.408Z,10.60
2018-11-07T21:37:55.457Z,10.60
2018-11-07T21:40:24.632Z,10.60
2018-11-07T21:42:53.804Z,10.60
2018-11-07T21:45:22.891Z,10.60
2018-11-07T21:47:52.116Z,10.50
2018-11-07T21:50:21.185Z,10.50
2018-11-07T21:52:50.310Z,10.50
2018-11-07T21:55:19.725Z,10.40
2018-11-07T21:57:48.780Z,10.40
2018-11-07T22:00:19.125Z,10.40
2018-11-07T22:02:48.420Z,10.30
2018-11-07T22:05:18.739Z,10.30
2018-11-07T22:07:47.918Z,10.30
2018-11-07T22:10:18.181Z,10.30
2018-11-07T22:12:47.463Z,10.30
2018-11-07T22:15:16.669Z,10.30
2018-11-07T22:17:45.750Z,10.30
2018-11-07T22:20:18.806Z,10.20
2018-11-07T22:22:48.327Z,10.30
2018-11-07T22:25:17.522Z,10.30
2018-11-07T22:27:46.653Z,10.30
2018-11-07T22:30:16.906Z,10.40
2018-11-07T22:32:46.044Z,10.40
2018-11-07T22:35:17.290Z,10.40
2018-11-07T22:37:48.338Z,10.30
2018-11-07T22:40:19.947Z,10.30
2018-11-07T22:42:49.178Z,10.30
2018-11-07T22:45:18.329Z,10.30
2018-11-07T22:47:48.435Z,10.20
2018-11-07T22:50:17.595Z,10.20
2018-11-07T22:52:46.830Z,10.20
2018-11-07T22:55:16.677Z,10.20
2018-11-07T22:57:46.961Z,10.20
2018-11-07T23:00:22.763Z,10.10
2018-11-07T23:02:54.491Z,10.10
2018-11-07T23:05:23.746Z,10.10
2018-11-07T23:07:53.630Z,10.10
2018-11-07T23:10:22.886Z,10.00
2018-11-07T23:12:52.087Z,10.10
2018-11-07T23:15:26.638Z,10.10
2018-11-07T23:17:55.661Z,10.10
2018-11-07T23:20:26.473Z,10.00
2018-11-07T23:22:55.610Z,10.00
2018-11-07T23:25:24.917Z,10.00
2018-11-07T23:27:53.973Z,10.00
2018-11-07T23:30:23.064Z,10.00
2018-11-07T23:32:52.414Z,10.00
2018-11-07T23:35:23.273Z,10.00
2018-11-07T23:37:52.811Z,10.00
2018-11-07T23:40:22.074Z,10.00
2018-11-07T23:42:51.178Z,10.00
2018-11-07T23:45:20.384Z,10.00
2018-11-07T23:47:50.725Z,9.90
2018-11-07T23:50:19.743Z,9.90
2018-11-07T23:52:50.012Z,9.80
2018-11-07T23:55:20.444Z,9.80
2018-11-07T23:57:50.361Z,9.80
